Weather History for Eureka Airport, NV

Change the Weather History Date:

Tuesday, February 12, 2013

  Actual Average Record
Temperature  
Mean Temperature 19 °F -  
Max Temperature 35 °F - - ()
Min Temperature 3 °F - - ()
Degree Days  
Heating Degree Days 46    
Moisture  
Dew Point 9 °F    
Average Humidity 73    
Maximum Humidity 93    
Minimum Humidity 44    
Precipitation  
Precipitation 0.00 in - - ()
Sea Level Pressure  
Sea Level Pressure 30.32 in    
Wind  
Wind Speed 5 mph (SSW)    
Max Wind Speed 9 mph    
Max Gust Speed -    
Visibility 10 miles    
Events      
T = Trace of Precipitation, MM = Missing Value Source: NWS Daily Summary

Daily Weather History Graph

Daily Weather History Graph

Search for Another Location

Airport:

Trip Planner

Search our weather history database for the weather conditions in past years. The results will help you decide how hot, cold, wet, or windy it might be!

Date:

Astronomy

Feb. 12, 2013 Rise Set
Actual Time 6:39 AM PST 5:17 PM PST
Civil Twilight 6:11 AM PST 5:45 PM PST
Nautical Twilight 5:40 AM PST 6:16 PM PST
Astronomical Twilight 5:08 AM PST 6:48 PM PST
Moon 7:39 AM PST (2/12) 8:21 PM PST (2/12)
Length of Visible Light 11h 33m
Length of Day
10h 37m
Waxing Crescent, 8% of the Moon is Illuminated
Feb 12
Waxing Crescent
Feb 17
First Quarter
Feb 25
Full
Mar 4
Last Quarter
Mar 11
New

Hourly Weather History & Observations

Time (PST) Temp. Windchill Dew Point Humidity Pressure Visibility Wind Dir Wind Speed Gust Speed Precip Events Conditions
12:15 AM 5.0 °F -5.6 °F 1.4 °F 85% 30.26 in 10.0 mi South 5.8 mph - N/A   Clear
12:35 AM 5.0 °F -5.6 °F -0.4 °F 78% 30.26 in 10.0 mi SSW 5.8 mph - N/A   Clear
12:55 AM 5.0 °F -5.6 °F -0.4 °F 78% 30.26 in 10.0 mi South 5.8 mph - N/A   Clear
1:15 AM 3.2 °F -4.2 °F -0.4 °F 85% 30.27 in 10.0 mi South 3.5 mph - N/A   Clear
1:35 AM 3.2 °F -6.2 °F -0.4 °F 85% 30.28 in 10.0 mi South 4.6 mph - N/A   Clear
1:55 AM 3.2 °F -10.3 °F -0.4 °F 85% 30.27 in 10.0 mi SSW 8.1 mph - N/A   Clear
2:15 AM 5.0 °F -6.9 °F 1.4 °F 85% 30.27 in 10.0 mi SSW 6.9 mph - N/A   Clear
2:35 AM 5.0 °F -5.6 °F -0.4 °F 78% 30.27 in 10.0 mi South 5.8 mph - N/A   Clear
2:55 AM 5.0 °F -4.1 °F -0.4 °F 78% 30.27 in 10.0 mi South 4.6 mph - N/A   Clear
3:15 AM 3.2 °F -6.2 °F -0.4 °F 85% 30.27 in 10.0 mi SSW 4.6 mph - N/A   Clear
3:35 AM 5.0 °F -9.1 °F -0.4 °F 78% 30.27 in 10.0 mi SW 9.2 mph - N/A   Clear
3:55 AM 6.8 °F -4.8 °F 3.2 °F 85% 30.28 in 10.0 mi WSW 6.9 mph - N/A   Clear
4:15 AM 5.0 °F -5.6 °F 1.4 °F 85% 30.29 in 10.0 mi SW 5.8 mph - N/A   Clear
4:35 AM 5.0 °F -8.1 °F 1.4 °F 85% 30.29 in 10.0 mi SSW 8.1 mph - N/A   Clear
4:55 AM 5.0 °F -6.9 °F 1.4 °F 85% 30.29 in 10.0 mi SSW 6.9 mph - N/A   Clear
5:15 AM 5.0 °F -8.1 °F -0.4 °F 78% 30.29 in 10.0 mi SSW 8.1 mph - N/A   Clear
5:35 AM 6.8 °F -5.9 °F 3.2 °F 85% 30.30 in 10.0 mi SW 8.1 mph - N/A   Clear
5:55 AM 6.8 °F -6.9 °F 1.4 °F 79% 30.30 in 10.0 mi SSW 9.2 mph - N/A   Clear
6:15 AM 5.0 °F -9.1 °F 1.4 °F 85% 30.29 in 10.0 mi SW 9.2 mph - N/A   Clear
6:35 AM 3.2 °F -7.8 °F -0.4 °F 85% 30.30 in 10.0 mi SSW 5.8 mph - N/A   Clear
6:55 AM 6.8 °F -6.9 °F 1.4 °F 79% 30.30 in 10.0 mi SSW 9.2 mph - N/A   Clear
7:15 AM 6.8 °F -6.9 °F 3.2 °F 85% 30.31 in 10.0 mi SSW 9.2 mph - N/A   Clear
7:35 AM 8.6 °F 0.1 °F 5.0 °F 85% 30.33 in 10.0 mi SW 4.6 mph - N/A   Clear
7:55 AM 12.2 °F - 6.8 °F 79% 30.34 in 10.0 mi Calm Calm - N/A   Clear
8:15 AM 14.0 °F 3.9 °F 10.4 °F 86% 30.34 in 10.0 mi SW 6.9 mph - N/A   Clear
8:35 AM 15.8 °F 8.6 °F 8.6 °F 73% 30.33 in 10.0 mi SW 4.6 mph - N/A   Clear
8:55 AM 17.6 °F 10.7 °F 10.4 °F 73% 30.34 in 10.0 mi SSW 4.6 mph - N/A   Clear
9:15 AM 19.4 °F - 12.2 °F 74% 30.34 in 10.0 mi Calm Calm - N/A   Clear
9:35 AM 24.8 °F 20.5 °F 14.0 °F 64% 30.34 in 10.0 mi South 3.5 mph - N/A   Clear
9:55 AM 24.8 °F 20.5 °F 14.0 °F 64% 30.34 in 10.0 mi South 3.5 mph - N/A   Clear
10:15 AM 26.6 °F - 14.0 °F 59% 30.35 in 10.0 mi Calm Calm - N/A   Clear
10:35 AM 28.4 °F 24.6 °F 15.8 °F 59% 30.35 in 10.0 mi East 3.5 mph - N/A   Clear
10:55 AM 28.4 °F - 15.8 °F 59% 30.36 in 10.0 mi Calm Calm - N/A   Clear
11:15 AM 28.4 °F - 14.0 °F 55% 30.35 in 10.0 mi Calm Calm - N/A   Clear
11:35 AM 32.0 °F - 14.0 °F 48% 30.34 in 10.0 mi Calm Calm - N/A   Clear
11:55 AM 32.0 °F - 15.8 °F 51% 30.34 in 10.0 mi Calm Calm - N/A   Clear
12:15 PM 32.0 °F - 15.8 °F 51% 30.33 in 10.0 mi Calm Calm - N/A   Clear
12:35 PM 33.8 °F - 14.0 °F 44% 30.33 in 10.0 mi Calm Calm - N/A   Clear
12:55 PM 35.6 °F - 15.8 °F 44% 30.32 in 10.0 mi Calm Calm - N/A   Clear
1:15 PM 35.6 °F - 15.8 °F 44% 30.32 in 10.0 mi Calm Calm - N/A   Clear
1:35 PM 35.6 °F - 15.8 °F 44% 30.31 in 10.0 mi Calm Calm - N/A   Clear
1:55 PM 35.6 °F - 15.8 °F 44% 30.31 in 10.0 mi Calm Calm - N/A   Clear
2:15 PM 35.6 °F 31.7 °F 17.6 °F 48% 30.31 in 10.0 mi ENE 4.6 mph - N/A   Clear
2:35 PM 35.6 °F 31.7 °F 17.6 °F 48% 30.30 in 10.0 mi ENE 4.6 mph - N/A   Clear
2:55 PM 35.6 °F 31.7 °F 17.6 °F 48% 30.30 in 10.0 mi NE 4.6 mph - N/A   Unknown
3:15 PM 35.6 °F 31.7 °F 19.4 °F 52% 30.31 in 10.0 mi ENE 4.6 mph - N/A   Clear
3:35 PM 35.6 °F 31.7 °F 19.4 °F 52% 30.31 in 10.0 mi NE 4.6 mph - N/A   Clear
3:55 PM 33.8 °F 30.8 °F 19.4 °F 56% 30.30 in 10.0 mi NE 3.5 mph - N/A   Clear
4:15 PM 33.8 °F 29.6 °F 17.6 °F 52% 30.31 in 10.0 mi North 4.6 mph - N/A   Clear
4:35 PM 32.0 °F 28.7 °F 17.6 °F 55% 30.32 in 10.0 mi NNE 3.5 mph - N/A   Clear
4:55 PM 32.0 °F 27.5 °F 17.6 °F 55% 30.32 in 10.0 mi North 4.6 mph - N/A   Clear
5:15 PM 30.2 °F 24.3 °F 17.6 °F 60% 30.34 in 10.0 mi North 5.8 mph - N/A   Clear
5:35 PM 26.6 °F 20.0 °F 17.6 °F 69% 30.34 in 10.0 mi NNW 5.8 mph - N/A   Clear
5:55 PM 24.8 °F 16.9 °F 15.8 °F 69% 30.35 in 10.0 mi North 6.9 mph - N/A   Clear
6:15 PM 19.4 °F 12.8 °F 14.0 °F 80% 30.35 in 10.0 mi NNE 4.6 mph - N/A   Clear
6:35 PM 19.4 °F - 14.0 °F 80% 30.35 in 10.0 mi Calm Calm - N/A   Clear
6:55 PM 17.6 °F 12.3 °F 14.0 °F 86% 30.35 in 10.0 mi South 3.5 mph - N/A   Clear
7:15 PM 17.6 °F 10.7 °F 14.0 °F 86% 30.35 in 10.0 mi SSE 4.6 mph - N/A   Clear
7:35 PM 15.8 °F - 14.0 °F 93% 30.34 in 10.0 mi Calm Calm - N/A   Clear
7:55 PM 14.0 °F - 10.4 °F 86% 30.35 in 10.0 mi Calm Calm - N/A   Clear
8:15 PM 14.0 °F 8.2 °F 10.4 °F 86% 30.35 in 10.0 mi South 3.5 mph - N/A   Clear
8:35 PM 14.0 °F 6.5 °F 8.6 °F 79% 30.35 in 10.0 mi South 4.6 mph - N/A   Clear
8:55 PM 14.0 °F 8.2 °F 10.4 °F 86% 30.35 in 10.0 mi South 3.5 mph - N/A   Clear
9:15 PM 12.2 °F 2.9 °F 8.6 °F 85% 30.36 in 10.0 mi SSE 5.8 mph - N/A   Clear
9:35 PM 10.4 °F - 6.8 °F 85% 30.36 in 10.0 mi Calm Calm - N/A   Clear
9:55 PM 10.4 °F - 6.8 °F 85% 30.37 in 10.0 mi Calm Calm - N/A   Clear
10:15 PM 14.0 °F 5.1 °F 10.4 °F 86% 30.37 in 10.0 mi South 5.8 mph - N/A   Clear
10:35 PM 14.0 °F 3.9 °F 10.4 °F 86% 30.37 in 10.0 mi SSW 6.9 mph - N/A   Clear
10:55 PM 10.4 °F 2.2 °F 8.6 °F 92% 30.36 in 10.0 mi South 4.6 mph - N/A   Clear
11:15 PM 8.6 °F -1.3 °F 6.8 °F 92% 30.36 in 10.0 mi SSW 5.8 mph - N/A   Clear
11:35 PM 8.6 °F -2.6 °F 6.8 °F 92% 30.35 in 10.0 mi SSW 6.9 mph - N/A   Clear
11:55 PM 10.4 °F 4.0 °F 6.8 °F 85% 30.36 in 10.0 mi South 3.5 mph - N/A   Clear